Boone County Airport Harrison US
ICAO: KHRO
IATA: HRO
Category: Medium
Scheduled Services: Yes

Elevation: 1365 ft
TransAlt. 18000 ft.

Airport Communications:
ASOS:121.125
MEMPHIS CNTR:126.85
JONESBORO RDO:122.45
CTAF/UNICOM:123

KHRO Zoom In..

If you have problems with the map follow the link
https://www.worldairports.se/pages/airport.php?
ICAO=KHRO

Runways:

(A) RW 18 length 6161 ft width 150 ft
---- / hdg 182

(B) RW 36 length 6161 ft width 150 ft
ILS 111.70 / hdg 2

Location; KHRO
Day. 18 / Time. 21.53 Zulu
* Altimeter: 29.79
* Temperature: 10° c. 50°f.
* Wind from: 150° Speed 18 kn with Gusts up to 26 kn.
Dewpoint: 06° c.
Visibility: 10 Statute Miles.
Clouds: Overcast 1700 ft.

KHRO 182153Z AUTO 15018G26KT 10SM OVC017 10/06 A2979 RMK AO2 PK WND 15026/2147 SLP090 T01000061


Wind From 150°
Speed 18 kn.

 
 
jpsmedia.com for Web Design worldairports.se 2019   terms of use